sensor_id;sensor_type;location;lat;lon;timestamp;P1;durP1;ratioP1;P2;durP2;ratioP2
65477;SDS011;53678;39.642;22.430;2024-02-23T00:00:36;39.90;;;24.17;;
65477;SDS011;53678;39.642;22.430;2024-02-23T00:03:02;45.58;;;25.27;;
65477;SDS011;53678;39.642;22.430;2024-02-23T00:05:28;48.92;;;24.83;;
65477;SDS011;53678;39.642;22.430;2024-02-23T00:07:53;45.05;;;23.60;;
65477;SDS011;53678;39.642;22.430;2024-02-23T00:10:19;41.30;;;22.40;;
65477;SDS011;53678;39.642;22.430;2024-02-23T00:12:45;47.63;;;24.95;;
65477;SDS011;53678;39.642;22.430;2024-02-23T00:15:12;44.63;;;26.30;;
65477;SDS011;53678;39.642;22.430;2024-02-23T00:17:38;47.78;;;25.52;;
65477;SDS011;53678;39.642;22.430;2024-02-23T00:20:05;44.05;;;25.20;;
65477;SDS011;53678;39.642;22.430;2024-02-23T00:22:36;40.83;;;23.58;;
65477;SDS011;53678;39.642;22.430;2024-02-23T00:25:01;38.85;;;23.10;;
65477;SDS011;53678;39.642;22.430;2024-02-23T00:27:27;39.30;;;23.65;;
65477;SDS011;53678;39.642;22.430;2024-02-23T00:29:52;41.83;;;23.00;;
65477;SDS011;53678;39.642;22.430;2024-02-23T00:32:18;38.55;;;22.42;;
65477;SDS011;53678;39.642;22.430;2024-02-23T00:34:44;34.35;;;20.38;;
65477;SDS011;53678;39.642;22.430;2024-02-23T00:37:10;33.22;;;21.10;;
65477;SDS011;53678;39.642;22.430;2024-02-23T00:39:35;31.52;;;20.20;;
65477;SDS011;53678;39.642;22.430;2024-02-23T00:42:02;33.47;;;21.20;;
65477;SDS011;53678;39.642;22.430;2024-02-23T00:44:28;35.75;;;21.55;;
65477;SDS011;53678;39.642;22.430;2024-02-23T00:46:54;36.85;;;22.27;;
65477;SDS011;53678;39.642;22.430;2024-02-23T00:49:19;39.95;;;22.67;;
65477;SDS011;53678;39.642;22.430;2024-02-23T00:51:45;35.20;;;20.60;;
65477;SDS011;53678;39.642;22.430;2024-02-23T00:54:11;32.80;;;19.77;;
65477;SDS011;53678;39.642;22.430;2024-02-23T00:56:36;35.55;;;19.60;;
65477;SDS011;53678;39.642;22.430;2024-02-23T00:59:02;33.70;;;20.13;;
65477;SDS011;53678;39.642;22.430;2024-02-23T01:01:28;41.03;;;21.38;;
65477;SDS011;53678;39.642;22.430;2024-02-23T01:03:54;31.90;;;18.65;;
65477;SDS011;53678;39.642;22.430;2024-02-23T01:06:19;34.63;;;19.38;;
65477;SDS011;53678;39.642;22.430;2024-02-23T01:08:45;28.35;;;17.10;;
65477;SDS011;53678;39.642;22.430;2024-02-23T01:11:11;28.38;;;17.20;;
65477;SDS011;53678;39.642;22.430;2024-02-23T01:13:36;28.63;;;17.02;;
65477;SDS011;53678;39.642;22.430;2024-02-23T01:16:02;29.10;;;16.92;;
65477;SDS011;53678;39.642;22.430;2024-02-23T01:18:28;32.35;;;18.20;;
65477;SDS011;53678;39.642;22.430;2024-02-23T01:20:54;38.15;;;19.77;;
65477;SDS011;53678;39.642;22.430;2024-02-23T01:23:21;30.08;;;17.75;;
65477;SDS011;53678;39.642;22.430;2024-02-23T01:25:47;30.30;;;18.38;;
65477;SDS011;53678;39.642;22.430;2024-02-23T01:28:13;33.15;;;18.50;;
65477;SDS011;53678;39.642;22.430;2024-02-23T01:30:38;25.10;;;16.08;;
65477;SDS011;53678;39.642;22.430;2024-02-23T01:33:04;35.42;;;18.90;;
65477;SDS011;53678;39.642;22.430;2024-02-23T01:35:30;29.60;;;18.60;;
65477;SDS011;53678;39.642;22.430;2024-02-23T01:37:55;29.13;;;18.83;;
65477;SDS011;53678;39.642;22.430;2024-02-23T01:40:21;33.65;;;20.52;;
65477;SDS011;53678;39.642;22.430;2024-02-23T01:42:47;34.80;;;21.10;;
65477;SDS011;53678;39.642;22.430;2024-02-23T01:45:12;35.13;;;21.98;;
65477;SDS011;53678;39.642;22.430;2024-02-23T01:47:38;36.72;;;19.73;;
65477;SDS011;53678;39.642;22.430;2024-02-23T01:50:04;36.60;;;20.73;;
65477;SDS011;53678;39.642;22.430;2024-02-23T01:52:30;33.28;;;21.27;;
65477;SDS011;53678;39.642;22.430;2024-02-23T01:54:56;34.00;;;19.75;;
65477;SDS011;53678;39.642;22.430;2024-02-23T01:57:23;38.83;;;20.80;;
65477;SDS011;53678;39.642;22.430;2024-02-23T01:59:49;39.78;;;20.42;;
65477;SDS011;53678;39.642;22.430;2024-02-23T02:02:15;38.17;;;22.10;;
65477;SDS011;53678;39.642;22.430;2024-02-23T02:04:41;38.55;;;22.55;;
65477;SDS011;53678;39.642;22.430;2024-02-23T02:07:07;42.33;;;23.30;;
65477;SDS011;53678;39.642;22.430;2024-02-23T02:09:33;35.00;;;21.52;;
65477;SDS011;53678;39.642;22.430;2024-02-23T02:11:58;32.30;;;20.85;;
65477;SDS011;53678;39.642;22.430;2024-02-23T02:14:24;34.15;;;20.60;;
65477;SDS011;53678;39.642;22.430;2024-02-23T02:16:51;41.40;;;22.35;;
65477;SDS011;53678;39.642;22.430;2024-02-23T02:19:16;37.67;;;21.48;;
65477;SDS011;53678;39.642;22.430;2024-02-23T02:21:42;40.30;;;21.02;;
65477;SDS011;53678;39.642;22.430;2024-02-23T02:24:08;30.55;;;19.65;;
65477;SDS011;53678;39.642;22.430;2024-02-23T02:26:34;33.15;;;20.60;;
65477;SDS011;53678;39.642;22.430;2024-02-23T02:29:01;34.50;;;20.38;;
65477;SDS011;53678;39.642;22.430;2024-02-23T02:31:27;30.30;;;18.67;;
65477;SDS011;53678;39.642;22.430;2024-02-23T02:33:52;32.00;;;19.27;;
65477;SDS011;53678;39.642;22.430;2024-02-23T02:36:18;30.27;;;18.40;;
65477;SDS011;53678;39.642;22.430;2024-02-23T02:38:44;33.95;;;19.33;;
65477;SDS011;53678;39.642;22.430;2024-02-23T02:41:09;33.08;;;18.75;;
65477;SDS011;53678;39.642;22.430;2024-02-23T02:43:35;27.13;;;16.83;;
65477;SDS011;53678;39.642;22.430;2024-02-23T02:46:01;25.55;;;16.20;;
65477;SDS011;53678;39.642;22.430;2024-02-23T02:48:27;29.40;;;17.27;;
65477;SDS011;53678;39.642;22.430;2024-02-23T02:50:53;29.77;;;17.58;;
65477;SDS011;53678;39.642;22.430;2024-02-23T02:53:18;32.83;;;18.05;;
65477;SDS011;53678;39.642;22.430;2024-02-23T02:55:44;31.50;;;19.13;;
65477;SDS011;53678;39.642;22.430;2024-02-23T02:58:13;31.17;;;18.08;;
65477;SDS011;53678;39.642;22.430;2024-02-23T03:00:39;29.65;;;18.27;;
65477;SDS011;53678;39.642;22.430;2024-02-23T03:03:05;35.78;;;19.42;;
65477;SDS011;53678;39.642;22.430;2024-02-23T03:05:31;34.88;;;19.70;;
65477;SDS011;53678;39.642;22.430;2024-02-23T03:07:57;33.63;;;19.48;;
65477;SDS011;53678;39.642;22.430;2024-02-23T03:10:23;32.92;;;17.50;;
65477;SDS011;53678;39.642;22.430;2024-02-23T03:12:48;31.73;;;18.42;;
65477;SDS011;53678;39.642;22.430;2024-02-23T03:15:14;38.00;;;18.23;;
65477;SDS011;53678;39.642;22.430;2024-02-23T03:17:40;35.70;;;19.23;;
65477;SDS011;53678;39.642;22.430;2024-02-23T03:20:06;39.28;;;18.50;;
65477;SDS011;53678;39.642;22.430;2024-02-23T03:22:36;37.10;;;18.30;;
65477;SDS011;53678;39.642;22.430;2024-02-23T03:25:03;33.92;;;17.98;;
65477;SDS011;53678;39.642;22.430;2024-02-23T03:27:36;37.58;;;17.80;;
65477;SDS011;53678;39.642;22.430;2024-02-23T03:30:02;43.78;;;18.67;;
65477;SDS011;53678;39.642;22.430;2024-02-23T03:32:30;31.48;;;18.10;;
65477;SDS011;53678;39.642;22.430;2024-02-23T03:35:02;36.22;;;20.45;;
65477;SDS011;53678;39.642;22.430;2024-02-23T03:37:29;40.75;;;21.98;;
65477;SDS011;53678;39.642;22.430;2024-02-23T03:39:55;42.65;;;21.02;;
65477;SDS011;53678;39.642;22.430;2024-02-23T03:42:21;39.08;;;19.25;;
65477;SDS011;53678;39.642;22.430;2024-02-23T03:44:46;30.15;;;17.80;;
65477;SDS011;53678;39.642;22.430;2024-02-23T03:47:12;38.25;;;18.92;;
65477;SDS011;53678;39.642;22.430;2024-02-23T03:49:38;29.58;;;17.98;;
65477;SDS011;53678;39.642;22.430;2024-02-23T03:52:04;30.67;;;18.08;;
65477;SDS011;53678;39.642;22.430;2024-02-23T03:54:30;29.17;;;17.10;;
65477;SDS011;53678;39.642;22.430;2024-02-23T03:56:57;28.73;;;17.58;;
65477;SDS011;53678;39.642;22.430;2024-02-23T03:59:23;34.55;;;17.92;;
65477;SDS011;53678;39.642;22.430;2024-02-23T04:01:49;31.75;;;18.25;;
65477;SDS011;53678;39.642;22.430;2024-02-23T04:04:14;32.15;;;18.40;;
65477;SDS011;53678;39.642;22.430;2024-02-23T04:06:40;29.55;;;18.13;;
65477;SDS011;53678;39.642;22.430;2024-02-23T04:09:06;30.13;;;17.02;;
65477;SDS011;53678;39.642;22.430;2024-02-23T04:11:32;29.73;;;17.83;;
65477;SDS011;53678;39.642;22.430;2024-02-23T04:13:59;32.25;;;18.52;;
65477;SDS011;53678;39.642;22.430;2024-02-23T04:16:25;29.88;;;17.85;;
65477;SDS011;53678;39.642;22.430;2024-02-23T04:18:51;32.50;;;19.55;;
65477;SDS011;53678;39.642;22.430;2024-02-23T04:21:18;31.83;;;17.70;;
65477;SDS011;53678;39.642;22.430;2024-02-23T04:23:44;33.08;;;17.63;;
65477;SDS011;53678;39.642;22.430;2024-02-23T04:26:10;32.22;;;18.27;;
65477;SDS011;53678;39.642;22.430;2024-02-23T04:28:38;28.35;;;17.02;;
65477;SDS011;53678;39.642;22.430;2024-02-23T04:31:04;36.67;;;17.65;;
65477;SDS011;53678;39.642;22.430;2024-02-23T04:33:30;34.08;;;18.73;;
65477;SDS011;53678;39.642;22.430;2024-02-23T04:35:55;33.60;;;18.00;;
65477;SDS011;53678;39.642;22.430;2024-02-23T04:38:21;35.20;;;20.27;;
65477;SDS011;53678;39.642;22.430;2024-02-23T04:40:47;39.72;;;19.70;;
65477;SDS011;53678;39.642;22.430;2024-02-23T04:43:13;50.97;;;21.75;;
65477;SDS011;53678;39.642;22.430;2024-02-23T04:45:38;42.10;;;19.55;;
65477;SDS011;53678;39.642;22.430;2024-02-23T04:48:04;43.88;;;21.60;;
65477;SDS011;53678;39.642;22.430;2024-02-23T04:50:30;44.70;;;21.23;;
65477;SDS011;53678;39.642;22.430;2024-02-23T04:52:55;45.03;;;20.58;;
65477;SDS011;53678;39.642;22.430;2024-02-23T04:55:21;31.35;;;18.08;;
65477;SDS011;53678;39.642;22.430;2024-02-23T04:57:47;35.17;;;20.42;;
65477;SDS011;53678;39.642;22.430;2024-02-23T05:00:13;38.00;;;19.73;;
65477;SDS011;53678;39.642;22.430;2024-02-23T05:02:39;51.85;;;20.55;;
65477;SDS011;53678;39.642;22.430;2024-02-23T05:05:04;42.88;;;19.30;;
65477;SDS011;53678;39.642;22.430;2024-02-23T05:07:31;31.88;;;16.90;;
65477;SDS011;53678;39.642;22.430;2024-02-23T05:09:57;34.88;;;19.65;;
65477;SDS011;53678;39.642;22.430;2024-02-23T05:12:24;32.47;;;18.73;;
65477;SDS011;53678;39.642;22.430;2024-02-23T05:14:50;32.42;;;17.63;;
65477;SDS011;53678;39.642;22.430;2024-02-23T05:17:16;39.97;;;18.70;;
65477;SDS011;53678;39.642;22.430;2024-02-23T05:19:42;47.17;;;20.35;;
65477;SDS011;53678;39.642;22.430;2024-02-23T05:22:08;36.95;;;18.52;;
65477;SDS011;53678;39.642;22.430;2024-02-23T05:24:34;31.35;;;17.52;;
65477;SDS011;53678;39.642;22.430;2024-02-23T05:27:00;44.35;;;20.65;;
65477;SDS011;53678;39.642;22.430;2024-02-23T05:29:27;46.47;;;19.42;;
65477;SDS011;53678;39.642;22.430;2024-02-23T05:31:54;35.03;;;17.55;;
65477;SDS011;53678;39.642;22.430;2024-02-23T05:34:19;38.75;;;17.27;;
65477;SDS011;53678;39.642;22.430;2024-02-23T05:36:46;45.65;;;18.20;;
65477;SDS011;53678;39.642;22.430;2024-02-23T05:39:15;27.77;;;15.77;;
65477;SDS011;53678;39.642;22.430;2024-02-23T05:41:41;32.45;;;16.92;;
65477;SDS011;53678;39.642;22.430;2024-02-23T05:44:07;40.15;;;18.23;;
65477;SDS011;53678;39.642;22.430;2024-02-23T05:46:33;44.70;;;18.00;;
65477;SDS011;53678;39.642;22.430;2024-02-23T05:49:00;44.00;;;16.70;;
65477;SDS011;53678;39.642;22.430;2024-02-23T05:51:27;30.58;;;14.35;;
65477;SDS011;53678;39.642;22.430;2024-02-23T05:53:54;27.13;;;16.27;;
65477;SDS011;53678;39.642;22.430;2024-02-23T05:56:20;27.77;;;17.58;;
65477;SDS011;53678;39.642;22.430;2024-02-23T05:58:46;34.70;;;19.48;;
65477;SDS011;53678;39.642;22.430;2024-02-23T06:01:11;31.35;;;17.85;;
65477;SDS011;53678;39.642;22.430;2024-02-23T06:03:37;30.80;;;15.93;;
65477;SDS011;53678;39.642;22.430;2024-02-23T06:06:06;33.80;;;17.35;;
65477;SDS011;53678;39.642;22.430;2024-02-23T06:08:33;31.50;;;15.52;;
65477;SDS011;53678;39.642;22.430;2024-02-23T06:10:59;31.85;;;16.65;;
65477;SDS011;53678;39.642;22.430;2024-02-23T06:13:26;33.13;;;17.15;;
65477;SDS011;53678;39.642;22.430;2024-02-23T06:15:52;31.25;;;17.35;;
65477;SDS011;53678;39.642;22.430;2024-02-23T06:18:17;23.95;;;14.38;;
65477;SDS011;53678;39.642;22.430;2024-02-23T06:20:43;23.88;;;14.95;;
65477;SDS011;53678;39.642;22.430;2024-02-23T06:23:08;25.05;;;14.45;;
65477;SDS011;53678;39.642;22.430;2024-02-23T06:25:34;28.40;;;17.00;;
65477;SDS011;53678;39.642;22.430;2024-02-23T06:28:01;31.23;;;16.45;;
65477;SDS011;53678;39.642;22.430;2024-02-23T06:30:27;29.23;;;16.45;;
65477;SDS011;53678;39.642;22.430;2024-02-23T06:32:53;26.40;;;17.10;;
65477;SDS011;53678;39.642;22.430;2024-02-23T06:35:19;26.83;;;15.77;;
65477;SDS011;53678;39.642;22.430;2024-02-23T06:37:44;26.30;;;15.40;;
65477;SDS011;53678;39.642;22.430;2024-02-23T06:40:10;27.67;;;15.88;;
65477;SDS011;53678;39.642;22.430;2024-02-23T06:42:36;29.00;;;15.40;;
65477;SDS011;53678;39.642;22.430;2024-02-23T06:45:02;32.72;;;16.27;;
65477;SDS011;53678;39.642;22.430;2024-02-23T06:47:28;28.20;;;15.30;;
65477;SDS011;53678;39.642;22.430;2024-02-23T06:49:54;28.17;;;16.00;;
65477;SDS011;53678;39.642;22.430;2024-02-23T06:52:19;33.78;;;17.95;;
65477;SDS011;53678;39.642;22.430;2024-02-23T06:54:45;36.97;;;18.73;;
65477;SDS011;53678;39.642;22.430;2024-02-23T06:57:11;26.48;;;15.95;;
65477;SDS011;53678;39.642;22.430;2024-02-23T06:59:38;31.77;;;17.88;;
65477;SDS011;53678;39.642;22.430;2024-02-23T07:02:03;24.52;;;14.82;;
65477;SDS011;53678;39.642;22.430;2024-02-23T07:04:29;23.90;;;15.68;;
65477;SDS011;53678;39.642;22.430;2024-02-23T07:06:55;28.30;;;15.80;;
65477;SDS011;53678;39.642;22.430;2024-02-23T07:09:22;27.70;;;14.88;;
65477;SDS011;53678;39.642;22.430;2024-02-23T07:11:48;22.80;;;14.27;;
65477;SDS011;53678;39.642;22.430;2024-02-23T07:14:15;25.48;;;14.02;;
65477;SDS011;53678;39.642;22.430;2024-02-23T07:16:42;28.27;;;15.02;;
65477;SDS011;53678;39.642;22.430;2024-02-23T07:19:07;25.52;;;13.82;;
65477;SDS011;53678;39.642;22.430;2024-02-23T07:21:34;23.73;;;13.80;;
65477;SDS011;53678;39.642;22.430;2024-02-23T07:24:00;24.80;;;14.32;;
65477;SDS011;53678;39.642;22.430;2024-02-23T07:26:26;27.48;;;14.27;;
65477;SDS011;53678;39.642;22.430;2024-02-23T07:28:54;26.85;;;13.70;;
65477;SDS011;53678;39.642;22.430;2024-02-23T07:31:20;26.10;;;14.27;;
65477;SDS011;53678;39.642;22.430;2024-02-23T07:33:46;26.60;;;15.35;;
65477;SDS011;53678;39.642;22.430;2024-02-23T07:36:15;26.65;;;15.95;;
65477;SDS011;53678;39.642;22.430;2024-02-23T07:38:41;26.00;;;16.40;;
65477;SDS011;53678;39.642;22.430;2024-02-23T07:41:09;28.15;;;16.95;;
65477;SDS011;53678;39.642;22.430;2024-02-23T07:43:34;34.55;;;20.40;;
65477;SDS011;53678;39.642;22.430;2024-02-23T07:46:01;30.92;;;18.42;;
65477;SDS011;53678;39.642;22.430;2024-02-23T07:48:27;33.17;;;18.15;;
65477;SDS011;53678;39.642;22.430;2024-02-23T07:50:53;30.92;;;18.48;;
65477;SDS011;53678;39.642;22.430;2024-02-23T07:53:19;28.38;;;17.73;;
65477;SDS011;53678;39.642;22.430;2024-02-23T07:55:44;38.35;;;21.25;;
65477;SDS011;53678;39.642;22.430;2024-02-23T07:58:10;31.05;;;18.15;;
65477;SDS011;53678;39.642;22.430;2024-02-23T08:00:36;31.65;;;17.38;;
65477;SDS011;53678;39.642;22.430;2024-02-23T08:03:04;26.60;;;17.30;;
65477;SDS011;53678;39.642;22.430;2024-02-23T08:05:30;24.73;;;16.00;;
65477;SDS011;53678;39.642;22.430;2024-02-23T08:07:58;44.40;;;18.67;;
65477;SDS011;53678;39.642;22.430;2024-02-23T08:10:23;27.70;;;17.80;;
65477;SDS011;53678;39.642;22.430;2024-02-23T08:12:51;28.25;;;17.02;;
65477;SDS011;53678;39.642;22.430;2024-02-23T08:15:16;28.45;;;16.48;;
65477;SDS011;53678;39.642;22.430;2024-02-23T08:17:43;26.27;;;16.23;;
65477;SDS011;53678;39.642;22.430;2024-02-23T08:20:09;28.88;;;16.73;;
65477;SDS011;53678;39.642;22.430;2024-02-23T08:22:35;27.38;;;15.93;;
65477;SDS011;53678;39.642;22.430;2024-02-23T08:25:01;27.05;;;15.52;;
65477;SDS011;53678;39.642;22.430;2024-02-23T08:27:27;24.60;;;14.90;;
65477;SDS011;53678;39.642;22.430;2024-02-23T08:29:53;24.60;;;15.25;;
65477;SDS011;53678;39.642;22.430;2024-02-23T08:32:18;26.35;;;16.05;;
65477;SDS011;53678;39.642;22.430;2024-02-23T08:34:44;26.40;;;15.48;;
65477;SDS011;53678;39.642;22.430;2024-02-23T08:37:10;24.60;;;16.25;;
65477;SDS011;53678;39.642;22.430;2024-02-23T08:39:37;24.48;;;15.13;;
65477;SDS011;53678;39.642;22.430;2024-02-23T08:42:03;24.83;;;15.80;;
65477;SDS011;53678;39.642;22.430;2024-02-23T08:44:28;21.63;;;14.63;;
65477;SDS011;53678;39.642;22.430;2024-02-23T08:46:54;24.02;;;14.95;;
65477;SDS011;53678;39.642;22.430;2024-02-23T08:49:20;22.80;;;15.20;;
65477;SDS011;53678;39.642;22.430;2024-02-23T08:51:45;23.15;;;14.77;;
65477;SDS011;53678;39.642;22.430;2024-02-23T08:54:11;23.67;;;14.73;;
65477;SDS011;53678;39.642;22.430;2024-02-23T08:56:37;25.05;;;15.10;;
65477;SDS011;53678;39.642;22.430;2024-02-23T08:59:08;24.42;;;15.30;;
65477;SDS011;53678;39.642;22.430;2024-02-23T09:01:37;23.13;;;14.13;;
65477;SDS011;53678;39.642;22.430;2024-02-23T09:04:02;23.02;;;13.32;;
65477;SDS011;53678;39.642;22.430;2024-02-23T09:06:29;21.80;;;12.65;;
65477;SDS011;53678;39.642;22.430;2024-02-23T09:08:55;24.80;;;14.25;;
65477;SDS011;53678;39.642;22.430;2024-02-23T09:11:21;19.38;;;12.52;;
65477;SDS011;53678;39.642;22.430;2024-02-23T09:13:47;19.73;;;13.38;;
65477;SDS011;53678;39.642;22.430;2024-02-23T09:16:13;22.23;;;12.00;;
65477;SDS011;53678;39.642;22.430;2024-02-23T09:18:39;16.40;;;11.30;;
65477;SDS011;53678;39.642;22.430;2024-02-23T09:21:06;16.63;;;10.68;;
65477;SDS011;53678;39.642;22.430;2024-02-23T09:23:32;18.02;;;11.18;;
65477;SDS011;53678;39.642;22.430;2024-02-23T09:25:58;17.45;;;11.35;;
65477;SDS011;53678;39.642;22.430;2024-02-23T09:28:24;18.02;;;11.68;;
65477;SDS011;53678;39.642;22.430;2024-02-23T09:30:50;19.33;;;11.27;;
65477;SDS011;53678;39.642;22.430;2024-02-23T09:33:16;17.98;;;10.65;;
65477;SDS011;53678;39.642;22.430;2024-02-23T09:35:41;23.00;;;12.38;;
65477;SDS011;53678;39.642;22.430;2024-02-23T09:38:07;19.08;;;11.27;;
65477;SDS011;53678;39.642;22.430;2024-02-23T09:40:34;17.88;;;10.38;;
65477;SDS011;53678;39.642;22.430;2024-02-23T09:43:00;18.25;;;11.27;;
65477;SDS011;53678;39.642;22.430;2024-02-23T09:45:25;19.50;;;11.20;;
65477;SDS011;53678;39.642;22.430;2024-02-23T09:47:56;17.17;;;11.20;;
65477;SDS011;53678;39.642;22.430;2024-02-23T09:50:23;22.17;;;10.65;;
65477;SDS011;53678;39.642;22.430;2024-02-23T09:52:50;19.33;;;10.85;;
65477;SDS011;53678;39.642;22.430;2024-02-23T09:55:16;19.38;;;11.75;;
65477;SDS011;53678;39.642;22.430;2024-02-23T09:57:45;20.23;;;10.90;;
65477;SDS011;53678;39.642;22.430;2024-02-23T10:00:17;15.77;;;10.32;;
65477;SDS011;53678;39.642;22.430;2024-02-23T10:02:43;15.70;;;10.77;;
65477;SDS011;53678;39.642;22.430;2024-02-23T10:05:10;17.58;;;11.60;;
65477;SDS011;53678;39.642;22.430;2024-02-23T10:07:37;18.05;;;11.25;;
65477;SDS011;53678;39.642;22.430;2024-02-23T10:10:06;20.55;;;11.55;;
65477;SDS011;53678;39.642;22.430;2024-02-23T10:12:34;15.35;;;10.45;;
65477;SDS011;53678;39.642;22.430;2024-02-23T10:15:00;21.05;;;11.75;;
65477;SDS011;53678;39.642;22.430;2024-02-23T10:17:31;20.63;;;10.23;;
65477;SDS011;53678;39.642;22.430;2024-02-23T10:20:01;18.35;;;10.20;;
65477;SDS011;53678;39.642;22.430;2024-02-23T10:22:30;13.90;;;9.02;;
65477;SDS011;53678;39.642;22.430;2024-02-23T10:24:56;16.52;;;9.07;;
65477;SDS011;53678;39.642;22.430;2024-02-23T10:27:26;11.88;;;7.95;;
65477;SDS011;53678;39.642;22.430;2024-02-23T10:29:52;13.95;;;7.30;;
65477;SDS011;53678;39.642;22.430;2024-02-23T10:32:20;11.10;;;7.38;;
65477;SDS011;53678;39.642;22.430;2024-02-23T10:34:49;10.57;;;7.00;;
65477;SDS011;53678;39.642;22.430;2024-02-23T10:37:17;13.15;;;7.07;;
65477;SDS011;53678;39.642;22.430;2024-02-23T10:39:43;9.82;;;6.25;;
65477;SDS011;53678;39.642;22.430;2024-02-23T10:42:11;11.25;;;6.75;;
65477;SDS011;53678;39.642;22.430;2024-02-23T10:44:38;10.55;;;6.50;;
65477;SDS011;53678;39.642;22.430;2024-02-23T10:47:05;10.57;;;7.13;;
65477;SDS011;53678;39.642;22.430;2024-02-23T10:49:32;12.65;;;7.22;;
65477;SDS011;53678;39.642;22.430;2024-02-23T10:51:58;13.65;;;7.53;;
65477;SDS011;53678;39.642;22.430;2024-02-23T10:54:27;8.90;;;5.85;;
65477;SDS011;53678;39.642;22.430;2024-02-23T10:56:54;11.27;;;6.57;;
65477;SDS011;53678;39.642;22.430;2024-02-23T10:59:22;11.52;;;6.78;;
65477;SDS011;53678;39.642;22.430;2024-02-23T11:01:49;11.05;;;6.43;;
65477;SDS011;53678;39.642;22.430;2024-02-23T11:04:19;15.68;;;6.68;;
65477;SDS011;53678;39.642;22.430;2024-02-23T11:06:52;10.80;;;7.30;;
65477;SDS011;53678;39.642;22.430;2024-02-23T11:11:56;9.90;;;6.43;;
65477;SDS011;53678;39.642;22.430;2024-02-23T11:17:09;9.70;;;4.60;;
65477;SDS011;53678;39.642;22.430;2024-02-23T11:19:45;7.35;;;4.20;;
65477;SDS011;53678;39.642;22.430;2024-02-23T11:22:14;9.45;;;3.60;;
65477;SDS011;53678;39.642;22.430;2024-02-23T11:24:44;5.63;;;2.90;;
65477;SDS011;53678;39.642;22.430;2024-02-23T11:27:13;6.23;;;2.90;;
65477;SDS011;53678;39.642;22.430;2024-02-23T11:29:42;5.47;;;3.33;;
65477;SDS011;53678;39.642;22.430;2024-02-23T11:32:15;6.53;;;2.33;;
65477;SDS011;53678;39.642;22.430;2024-02-23T11:34:53;6.13;;;3.00;;
65477;SDS011;53678;39.642;22.430;2024-02-23T11:37:22;4.40;;;2.50;;
65477;SDS011;53678;39.642;22.430;2024-02-23T11:39:49;4.22;;;2.28;;
65477;SDS011;53678;39.642;22.430;2024-02-23T11:42:15;3.53;;;2.38;;
65477;SDS011;53678;39.642;22.430;2024-02-23T11:44:41;8.20;;;2.97;;
65477;SDS011;53678;39.642;22.430;2024-02-23T11:47:09;6.32;;;3.03;;
65477;SDS011;53678;39.642;22.430;2024-02-23T11:49:36;3.85;;;2.30;;
65477;SDS011;53678;39.642;22.430;2024-02-23T11:52:01;3.90;;;2.20;;
65477;SDS011;53678;39.642;22.430;2024-02-23T11:54:27;5.70;;;2.10;;
65477;SDS011;53678;39.642;22.430;2024-02-23T11:56:53;4.50;;;2.30;;
65477;SDS011;53678;39.642;22.430;2024-02-23T11:59:20;4.80;;;2.45;;
65477;SDS011;53678;39.642;22.430;2024-02-23T12:01:46;3.85;;;2.30;;
65477;SDS011;53678;39.642;22.430;2024-02-23T12:04:15;6.45;;;2.70;;
65477;SDS011;53678;39.642;22.430;2024-02-23T12:06:44;6.25;;;2.88;;
65477;SDS011;53678;39.642;22.430;2024-02-23T12:09:10;3.83;;;2.45;;
65477;SDS011;53678;39.642;22.430;2024-02-23T12:11:37;5.82;;;3.80;;
65477;SDS011;53678;39.642;22.430;2024-02-23T12:14:04;3.83;;;2.50;;
65477;SDS011;53678;39.642;22.430;2024-02-23T12:16:37;5.05;;;2.60;;
65477;SDS011;53678;39.642;22.430;2024-02-23T12:19:07;2.95;;;1.90;;
65477;SDS011;53678;39.642;22.430;2024-02-23T12:21:36;3.75;;;2.22;;
65477;SDS011;53678;39.642;22.430;2024-02-23T12:24:05;6.45;;;2.35;;
65477;SDS011;53678;39.642;22.430;2024-02-23T12:26:35;8.52;;;4.35;;
65477;SDS011;53678;39.642;22.430;2024-02-23T12:29:01;5.18;;;2.10;;
65477;SDS011;53678;39.642;22.430;2024-02-23T12:31:28;5.60;;;3.65;;
65477;SDS011;53678;39.642;22.430;2024-02-23T12:33:54;7.75;;;3.10;;
65477;SDS011;53678;39.642;22.430;2024-02-23T12:36:22;11.35;;;6.05;;
65477;SDS011;53678;39.642;22.430;2024-02-23T12:38:48;8.10;;;4.43;;
65477;SDS011;53678;39.642;22.430;2024-02-23T12:41:14;5.78;;;3.03;;
65477;SDS011;53678;39.642;22.430;2024-02-23T12:43:41;5.43;;;2.58;;
65477;SDS011;53678;39.642;22.430;2024-02-23T12:46:07;3.63;;;2.30;;
65477;SDS011;53678;39.642;22.430;2024-02-23T12:48:37;4.75;;;2.50;;
65477;SDS011;53678;39.642;22.430;2024-02-23T12:51:03;5.40;;;2.33;;
65477;SDS011;53678;39.642;22.430;2024-02-23T12:53:39;4.82;;;2.50;;
65477;SDS011;53678;39.642;22.430;2024-02-23T12:56:07;6.25;;;2.75;;
65477;SDS011;53678;39.642;22.430;2024-02-23T12:58:38;4.75;;;2.13;;
65477;SDS011;53678;39.642;22.430;2024-02-23T13:01:04;5.10;;;1.92;;
65477;SDS011;53678;39.642;22.430;2024-02-23T13:03:33;2.97;;;1.42;;
65477;SDS011;53678;39.642;22.430;2024-02-23T13:06:01;1.85;;;1.20;;
65477;SDS011;53678;39.642;22.430;2024-02-23T13:08:29;5.25;;;1.38;;
65477;SDS011;53678;39.642;22.430;2024-02-23T13:10:55;4.80;;;1.50;;
65477;SDS011;53678;39.642;22.430;2024-02-23T13:13:21;6.13;;;1.88;;
65477;SDS011;53678;39.642;22.430;2024-02-23T13:15:48;3.63;;;1.75;;
65477;SDS011;53678;39.642;22.430;2024-02-23T13:18:14;6.38;;;1.80;;
65477;SDS011;53678;39.642;22.430;2024-02-23T13:20:40;5.78;;;2.00;;
65477;SDS011;53678;39.642;22.430;2024-02-23T13:23:09;6.30;;;2.42;;
65477;SDS011;53678;39.642;22.430;2024-02-23T13:25:37;7.28;;;2.00;;
65477;SDS011;53678;39.642;22.430;2024-02-23T13:28:07;5.75;;;3.15;;
65477;SDS011;53678;39.642;22.430;2024-02-23T13:30:34;3.67;;;2.10;;
65477;SDS011;53678;39.642;22.430;2024-02-23T13:33:01;5.43;;;2.22;;
65477;SDS011;53678;39.642;22.430;2024-02-23T13:35:27;9.27;;;2.47;;
65477;SDS011;53678;39.642;22.430;2024-02-23T13:37:53;6.00;;;2.97;;
65477;SDS011;53678;39.642;22.430;2024-02-23T13:40:19;5.20;;;2.13;;
65477;SDS011;53678;39.642;22.430;2024-02-23T13:42:45;4.47;;;2.67;;
65477;SDS011;53678;39.642;22.430;2024-02-23T13:45:14;10.80;;;4.13;;
65477;SDS011;53678;39.642;22.430;2024-02-23T13:47:41;5.97;;;3.88;;
65477;SDS011;53678;39.642;22.430;2024-02-23T13:50:10;7.38;;;3.78;;
65477;SDS011;53678;39.642;22.430;2024-02-23T13:52:35;5.40;;;2.78;;
65477;SDS011;53678;39.642;22.430;2024-02-23T13:55:02;7.32;;;3.70;;
65477;SDS011;53678;39.642;22.430;2024-02-23T13:57:28;8.35;;;4.28;;
65477;SDS011;53678;39.642;22.430;2024-02-23T13:59:54;9.57;;;3.50;;
65477;SDS011;53678;39.642;22.430;2024-02-23T14:02:26;5.75;;;2.78;;
65477;SDS011;53678;39.642;22.430;2024-02-23T14:04:59;5.75;;;2.30;;
65477;SDS011;53678;39.642;22.430;2024-02-23T14:07:34;5.72;;;2.47;;
65477;SDS011;53678;39.642;22.430;2024-02-23T14:10:01;6.05;;;2.30;;
65477;SDS011;53678;39.642;22.430;2024-02-23T14:12:28;4.40;;;1.90;;
65477;SDS011;53678;39.642;22.430;2024-02-23T14:14:54;5.63;;;2.35;;
65477;SDS011;53678;39.642;22.430;2024-02-23T14:17:20;7.90;;;2.45;;